Time;durP1;ratioP1;P1;durP2;ratioP2;P2;SDS_P1;SDS_P2;PMS_P1;PMS_P2;Temp;Humidity;BMP_temperature;BMP_pressure;BME280_temperature;BME280_humidity;BME280_pressure;Samples;Min_cycle;Max_cycle;Signal;HPM_P1;HPM_P2
2021/06/05 00:00:32;;;;;;;11.82;8.52;;;;;;;16.11;100.00;96150.03;1026907;28;20079;-68
2021/06/05 00:01:06;;;;;;;9.98;8.32;;;;;;;16.06;100.00;96142.13;1030369;28;20069;-71
2021/06/05 00:01:41;;;;;;;9.02;8.13;;;;;;;16.10;100.00;96148.47;1026428;28;20114;-70
2021/06/05 00:02:16;;;;;;;11.23;8.48;;;;;;;16.11;100.00;96152.66;1026951;28;20015;-71
2021/06/05 00:02:46;;;;;;;10.65;8.45;;;;;;;16.08;100.00;96150.59;1026527;28;20018;-71
2021/06/05 00:03:17;;;;;;;12.52;8.57;;;;;;;16.11;100.00;96160.63;1030711;28;20026;-70
2021/06/05 00:03:48;;;;;;;10.23;8.30;;;;;;;16.12;100.00;96154.22;1022776;29;20500;-70
2021/06/05 00:04:19;;;;;;;10.88;9.05;;;;;;;16.08;100.00;96147.94;1026861;28;20114;-70
2021/06/05 00:04:50;;;;;;;11.07;8.55;;;;;;;16.10;100.00;96151.09;1018855;29;20058;-69
2021/06/05 00:05:24;;;;;;;12.52;8.75;;;;;;;16.10;100.00;96153.75;1022198;28;20055;-71
2021/06/05 00:05:58;;;;;;;23.48;9.82;;;;;;;16.10;100.00;96152.97;1018907;29;20019;-70
2021/06/05 00:06:31;;;;;;;21.95;9.07;;;;;;;16.09;100.00;96154.81;1018861;29;20062;-71
2021/06/05 00:07:02;;;;;;;14.90;9.02;;;;;;;16.05;100.00;96145.88;1025779;28;20023;-70
2021/06/05 00:07:32;;;;;;;19.85;8.55;;;;;;;16.06;100.00;96141.34;1022623;29;20030;-70
2021/06/05 00:08:04;;;;;;;9.20;8.30;;;;;;;16.09;100.00;96152.16;1022964;29;20027;-71
2021/06/05 00:08:34;;;;;;;10.10;8.45;;;;;;;16.10;100.00;96148.47;1022719;28;20119;-69
2021/06/05 00:09:05;;;;;;;11.15;8.05;;;;;;;16.02;100.00;96135.84;1022808;29;20034;-70
2021/06/05 00:09:36;;;;;;;9.63;8.43;;;;;;;16.14;100.00;96146.03;1015444;29;20035;-71
2021/06/05 00:10:08;;;;;;;9.63;8.63;;;;;;;16.13;100.00;96147.06;1023108;28;20035;-70
2021/06/05 00:10:41;;;;;;;10.30;7.97;;;;;;;16.15;100.00;96144.94;1027139;28;20073;-71
2021/06/05 00:11:12;;;;;;;10.48;8.38;;;;;;;16.05;100.00;96137.16;1030935;28;20023;-70
2021/06/05 00:11:46;;;;;;;9.85;8.45;;;;;;;16.13;100.00;96153.19;1027347;28;20050;-69
2021/06/05 00:12:26;;;;;;;9.65;8.65;;;;;;;16.08;100.00;96140.00;1027028;28;20832;-70
2021/06/05 00:12:57;;;;;;;8.13;7.32;;;;;;;16.12;100.00;96146.28;1026766;28;20015;-71
2021/06/05 00:13:33;;;;;;;9.73;8.60;;;;;;;16.10;100.00;96137.88;1030670;28;20018;-70
2021/06/05 00:14:05;;;;;;;11.85;8.82;;;;;;;16.11;100.00;96144.72;1018873;29;20240;-71
2021/06/05 00:14:38;;;;;;;8.65;7.80;;;;;;;16.08;100.00;96137.34;1014998;29;20572;-70
2021/06/05 00:15:22;;;;;;;9.32;8.20;;;;;;;16.12;100.00;96148.16;1018821;29;20023;-71
2021/06/05 00:15:53;;;;;;;9.27;8.30;;;;;;;16.13;100.00;96152.38;1018598;29;20027;-72
2021/06/05 00:16:26;;;;;;;10.23;8.52;;;;;;;16.13;100.00;96147.88;1026868;28;20019;-70
2021/06/05 00:16:56;;;;;;;9.30;8.15;;;;;;;16.13;100.00;96147.88;1019564;28;20570;-70
2021/06/05 00:17:27;;;;;;;9.65;7.97;;;;;;;16.10;100.00;96153.75;1023244;28;20100;-71
2021/06/05 00:17:58;;;;;;;12.73;8.25;;;;;;;16.05;100.00;96147.72;1026664;28;20031;-70
2021/06/05 00:18:29;;;;;;;9.80;8.75;;;;;;;16.08;100.00;96155.88;1019304;28;20015;-69
2021/06/05 00:18:59;;;;;;;10.20;7.90;;;;;;;16.08;100.00;96161.19;1026572;28;20019;-71
2021/06/05 00:19:30;;;;;;;10.60;8.43;;;;;;;16.06;100.00;96160.66;1026751;28;20019;-70
2021/06/05 00:20:00;;;;;;;12.15;8.75;;;;;;;16.03;100.00;96155.97;1030752;28;20030;-70
2021/06/05 00:20:32;;;;;;;12.20;8.48;;;;;;;16.04;100.00;96160.19;1024631;28;20404;-70
2021/06/05 00:21:06;;;;;;;11.18;8.80;;;;;;;16.03;100.00;96153.34;1026173;28;20018;-69
2021/06/05 00:21:36;;;;;;;11.98;7.95;;;;;;;16.05;100.00;96160.97;1030619;28;20105;-70
2021/06/05 00:22:10;;;;;;;13.10;9.10;;;;;;;15.96;100.00;96160.81;1022474;28;20015;-70
2021/06/05 00:22:40;;;;;;;9.63;8.60;;;;;;;15.99;100.00;96168.97;1022834;29;20483;-70
2021/06/05 00:23:19;;;;;;;9.23;8.32;;;;;;;16.01;100.00;96176.63;1022685;29;20035;-70
2021/06/05 00:23:50;;;;;;;9.88;8.88;;;;;;;16.00;100.00;96164.50;1026608;28;20014;-69
2021/06/05 00:24:22;;;;;;;13.18;9.43;;;;;;;15.97;100.00;96175.66;1028136;28;20423;-72
2021/06/05 00:24:53;;;;;;;9.95;8.60;;;;;;;15.91;100.00;96160.91;1022642;29;20011;-69
2021/06/05 00:25:23;;;;;;;9.88;8.80;;;;;;;15.93;100.00;96164.06;1015437;29;20040;-70
2021/06/05 00:25:54;;;;;;;10.00;9.00;;;;;;;15.94;100.00;96171.69;1018761;29;20107;-71
2021/06/05 00:26:24;;;;;;;11.13;9.88;;;;;;;15.90;100.00;96169.91;1030753;28;20515;-68
2021/06/05 00:26:55;;;;;;;11.50;9.65;;;;;;;15.92;100.00;96173.06;1030815;28;20030;-72
2021/06/05 00:27:25;;;;;;;11.48;10.07;;;;;;;15.84;100.00;96165.75;1026460;28;20031;-69
2021/06/05 00:27:56;;;;;;;12.02;10.82;;;;;;;15.81;100.00;96164.47;1022848;28;20035;-70
2021/06/05 00:28:27;;;;;;;11.90;10.20;;;;;;;15.86;100.00;96174.19;1022745;28;20024;-70
2021/06/05 00:28:57;;;;;;;12.63;9.88;;;;;;;15.84;100.00;96179.00;1026491;28;20027;-71
2021/06/05 00:29:27;;;;;;;11.10;10.00;;;;;;;15.83;100.00;96174.75;1028600;28;20023;-70
2021/06/05 00:29:58;;;;;;;11.20;10.07;;;;;;;15.75;100.00;96170.91;1026816;28;20023;-69
2021/06/05 00:30:28;;;;;;;14.63;10.82;;;;;;;15.76;100.00;96177.75;1022662;29;20027;-71
2021/06/05 00:30:59;;;;;;;15.57;11.20;;;;;;;15.63;100.00;96155.41;1018187;28;20501;-71
2021/06/05 00:31:30;;;;;;;11.75;10.63;;;;;;;15.71;100.00;96168.03;1018458;29;20485;-70
2021/06/05 00:32:00;;;;;;;15.98;10.43;;;;;;;15.70;100.00;96174.41;1018869;29;20047;-70
2021/06/05 00:32:31;;;;;;;13.23;10.70;;;;;;;15.73;100.00;96181.00;1022634;28;20524;-71
2021/06/05 00:33:02;;;;;;;14.52;9.80;;;;;;;15.73;100.00;96181.00;1018728;28;20560;-71
2021/06/05 00:33:32;;;;;;;13.38;10.88;;;;;;;15.68;100.00;96173.09;1026817;28;20027;-70
2021/06/05 00:34:03;;;;;;;12.40;11.10;;;;;;;15.71;100.00;96183.13;1018964;29;20090;-70
2021/06/05 00:34:34;;;;;;;13.07;11.02;;;;;;;15.68;100.00;96187.13;1022453;28;20051;-71
2021/06/05 00:35:05;;;;;;;13.35;11.30;;;;;;;15.62;100.00;96174.97;1026614;28;20027;-71
2021/06/05 00:35:36;;;;;;;13.60;12.13;;;;;;;15.63;100.00;96181.88;1026763;28;20019;-69
2021/06/05 00:36:07;;;;;;;14.60;11.90;;;;;;;15.60;100.00;96179.78;1022593;29;20031;-70
2021/06/05 00:36:38;;;;;;;12.05;10.95;;;;;;;15.62;100.00;96182.91;1022705;29;20066;-69
2021/06/05 00:37:11;;;;;;;14.95;12.35;;;;;;;15.60;100.00;96182.44;1022800;29;20428;-69
2021/06/05 00:37:41;;;;;;;13.15;11.85;;;;;;;15.57;100.00;96180.34;1022805;29;20031;-71
2021/06/05 00:38:14;;;;;;;13.73;12.20;;;;;;;15.55;100.00;96179.84;1022736;29;20496;-70
2021/06/05 00:38:45;;;;;;;14.60;11.25;;;;;;;15.54;100.00;96180.91;1019355;29;20024;-69
2021/06/05 00:39:15;;;;;;;13.95;12.48;;;;;;;15.56;100.00;96184.09;1019404;29;20127;-71
2021/06/05 00:39:46;;;;;;;13.70;11.77;;;;;;;15.54;100.00;96184.34;1025730;28;20031;-71
2021/06/05 00:40:17;;;;;;;13.40;11.48;;;;;;;15.45;100.00;96169.38;1026856;28;20495;-70
2021/06/05 00:40:51;;;;;;;13.02;11.63;;;;;;;15.46;100.00;96174.41;1022694;29;20531;-71
2021/06/05 00:41:22;;;;;;;13.15;11.70;;;;;;;15.48;100.00;96180.19;1019843;28;20123;-69
2021/06/05 00:41:52;;;;;;;13.00;11.80;;;;;;;15.51;100.00;96178.84;1020249;28;20068;-70
2021/06/05 00:42:23;;;;;;;15.30;12.57;;;;;;;15.42;100.00;96168.09;1028269;28;20127;-69
2021/06/05 00:42:54;;;;;;;13.93;12.48;;;;;;;15.45;100.00;96169.38;1026503;28;20027;-70
2021/06/05 00:43:29;;;;;;;13.88;12.13;;;;;;;15.40;100.00;96166.81;1018951;29;20023;-68
2021/06/05 00:44:03;;;;;;;13.80;12.40;;;;;;;15.43;100.00;96182.13;1018927;29;20115;-69
2021/06/05 00:44:34;;;;;;;13.88;12.57;;;;;;;15.39;100.00;96179.25;1015331;29;20110;-72
2021/06/05 00:45:06;;;;;;;13.32;11.75;;;;;;;15.38;100.00;96180.31;1019752;29;20059;-69
2021/06/05 00:45:38;;;;;;;13.65;11.18;;;;;;;15.35;100.00;96182.72;1022848;29;20062;-69
2021/06/05 00:46:10;;;;;;;12.57;11.25;;;;;;;15.24;100.00;96169.63;1018847;29;20028;-70
2021/06/05 00:46:41;;;;;;;13.52;12.18;;;;;;;15.31;100.00;96177.22;1022113;29;20018;-71
2021/06/05 00:47:11;;;;;;;15.45;12.35;;;;;;;15.29;100.00;96180.16;1023190;28;20031;-70
2021/06/05 00:47:42;;;;;;;14.75;12.02;;;;;;;15.28;100.00;96181.19;1022864;29;20078;-70
2021/06/05 00:48:16;;;;;;;13.85;12.20;;;;;;;15.24;100.00;96179.41;1019148;28;20505;-70
2021/06/05 00:48:46;;;;;;;12.85;11.55;;;;;;;15.25;100.00;96181.75;1022671;29;20520;-70
2021/06/05 00:49:17;;;;;;;15.30;12.38;;;;;;;15.23;100.00;96178.63;1023305;28;20027;-70
2021/06/05 00:49:52;;;;;;;13.20;11.80;;;;;;;15.20;100.00;96179.19;1027136;28;20386;-69
2021/06/05 00:50:24;;;;;;;14.07;12.35;;;;;;;15.21;100.00;96179.97;1030279;28;20033;-69
2021/06/05 00:50:54;;;;;;;12.65;11.35;;;;;;;15.22;100.00;96182.31;1022538;29;20046;-70
2021/06/05 00:51:42;;;;;;;16.13;12.93;;;;;;;15.23;100.00;96185.78;1018850;29;20405;-67
2021/06/05 00:52:14;;;;;;;13.15;11.75;;;;;;;15.23;100.00;96183.91;1026876;28;20504;-69
2021/06/05 00:52:45;;;;;;;16.45;13.43;;;;;;;15.22;100.00;96187.59;1022766;29;20510;-67
2021/06/05 00:53:15;;;;;;;16.67;12.77;;;;;;;15.19;100.00;96180.25;1028844;28;20159;-70
2021/06/05 00:53:46;;;;;;;13.73;12.32;;;;;;;15.20;100.00;96184.47;1026694;28;20383;-70
2021/06/05 00:54:20;;;;;;;14.85;12.82;;;;;;;15.19;100.00;96190.84;1026931;28;20039;-70
2021/06/05 00:54:50;;;;;;;15.07;13.48;;;;;;;15.22;100.00;96190.25;1023326;28;20026;-70
2021/06/05 00:55:22;;;;;;;14.88;13.32;;;;;;;15.20;100.00;96181.81;1019896;28;20055;-70
2021/06/05 00:55:53;;;;;;;18.17;13.25;;;;;;;15.23;100.00;96181.25;1018832;29;20020;-70
2021/06/05 00:56:24;;;;;;;14.30;12.88;;;;;;;15.22;100.00;96178.88;1022970;29;20058;-71
2021/06/05 00:56:56;;;;;;;15.00;13.38;;;;;;;15.29;100.00;96187.25;1026783;28;20026;-71
2021/06/05 00:57:26;;;;;;;17.77;12.88;;;;;;;15.24;100.00;96180.19;1018685;29;20055;-70
2021/06/05 00:57:57;;;;;;;14.60;13.20;;;;;;;15.29;100.00;96185.44;1018782;29;20473;-69
2021/06/05 00:58:28;;;;;;;15.38;13.52;;;;;;;15.22;100.00;96176.25;1022735;29;20049;-69
2021/06/05 00:58:58;;;;;;;21.67;13.57;;;;;;;15.29;100.00;96188.09;1030842;28;20034;-71
2021/06/05 00:59:29;;;;;;;14.20;12.63;;;;;;;15.29;100.00;96184.63;1030748;28;20018;-69
2021/06/05 00:59:59;;;;;;;14.82;13.20;;;;;;;15.31;100.00;96187.78;1026780;28;20444;-70
2021/06/05 01:00:33;;;;;;;14.85;12.85;;;;;;;15.30;100.00;96183.56;1018899;28;20461;-69
2021/06/05 01:01:09;;;;;;;15.38;13.65;;;;;;;15.35;100.00;96185.38;1022321;29;20472;-71
2021/06/05 01:01:43;;;;;;;14.63;13.13;;;;;;;15.31;100.00;96183.28;1023400;28;20551;-70
2021/06/05 01:02:13;;;;;;;14.40;12.90;;;;;;;15.31;100.00;96175.34;1018837;29;20020;-71
2021/06/05 01:02:44;;;;;;;14.85;13.13;;;;;;;15.35;100.00;96180.06;1014943;29;20541;-69
2021/06/05 01:03:14;;;;;;;15.63;13.05;;;;;;;15.38;100.00;96187.44;1022744;28;20027;-69
2021/06/05 01:03:47;;;;;;;14.43;12.50;;;;;;;15.31;100.00;96175.34;1026518;28;20019;-69
2021/06/05 01:04:18;;;;;;;14.80;13.32;;;;;;;15.41;100.00;96184.25;1018896;29;20107;-72
2021/06/05 01:04:48;;;;;;;15.55;13.95;;;;;;;15.41;100.00;96184.25;1014787;29;20466;-71
2021/06/05 01:05:19;;;;;;;15.18;13.60;;;;;;;15.35;100.00;96165.00;1021043;28;20019;-71
2021/06/05 01:05:54;;;;;;;15.13;13.63;;;;;;;15.44;100.00;96178.38;1027022;28;20038;-70
2021/06/05 01:06:31;;;;;;;18.13;12.75;;;;;;;15.40;100.00;96172.09;1023512;28;20051;-68
2021/06/05 01:07:26;;;;;;;14.48;13.02;;;;;;;15.41;100.00;96176.31;1025617;28;20015;-70
2021/06/05 01:08:23;;;;;;;17.17;13.10;;;;;;;15.46;100.00;96174.41;1030511;28;20466;-70
2021/06/05 01:08:58;;;;;;;15.77;13.93;;;;;;;15.47;100.00;96173.31;1026157;28;20126;-70
2021/06/05 01:09:33;;;;;;;30.95;14.57;;;;;;;15.47;100.00;96177.84;1022875;28;20498;-71
2021/06/05 01:10:15;;;;;;;14.93;13.43;;;;;;;15.50;100.00;96179.91;1026727;28;20026;-69
2021/06/05 01:10:46;;;;;;;15.52;13.98;;;;;;;15.51;100.00;96178.84;1026754;28;20431;-70
2021/06/05 01:11:22;;;;;;;15.73;14.13;;;;;;;15.52;100.00;96175.09;1022030;29;20035;-69
2021/06/05 01:12:16;;;;;;;15.93;13.55;;;;;;;15.53;100.00;96176.72;1024972;28;20024;-70
2021/06/05 01:13:14;;;;;;;15.57;13.95;;;;;;;15.53;100.00;96166.91;1026673;28;20015;-69
2021/06/05 01:13:54;;;;;;;16.33;14.23;;;;;;;15.55;100.00;96169.25;1024964;28;20512;-67
2021/06/05 01:14:33;;;;;;;15.55;13.38;;;;;;;15.55;100.00;96166.63;1027483;28;20451;-68
2021/06/05 01:15:20;;;;;;;14.88;13.48;;;;;;;15.56;100.00;96171.63;1026656;28;20066;-69
2021/06/05 01:15:58;;;;;;;15.60;13.82;;;;;;;15.51;100.00;96160.31;1027219;28;20015;-69
2021/06/05 01:16:28;;;;;;;15.20;13.70;;;;;;;15.51;100.00;96163.75;1030580;28;20033;-71
2021/06/05 01:17:02;;;;;;;15.65;14.05;;;;;;;15.54;100.00;96159.75;1021455;29;20023;-70
2021/06/05 01:17:34;;;;;;;16.45;14.75;;;;;;;15.52;100.00;96164.53;1018823;29;20023;-70
2021/06/05 01:18:12;;;;;;;15.73;14.05;;;;;;;15.58;100.00;96168.69;1014727;29;20498;-67
2021/06/05 01:18:54;;;;;;;15.52;13.93;;;;;;;15.59;100.00;96170.25;1018649;29;20421;-70
2021/06/05 01:19:51;;;;;;;15.50;13.90;;;;;;;15.59;100.00;96175.56;1018776;29;20066;-68
2021/06/05 01:20:40;;;;;;;14.90;13.40;;;;;;;15.60;100.00;96166.56;1024514;28;20039;-71
2021/06/05 01:21:30;;;;;;;17.13;15.23;;;;;;;15.60;100.00;96176.38;1023815;28;20433;-71
2021/06/05 01:22:17;;;;;;;17.15;15.38;;;;;;;15.61;100.00;96170.00;1025375;28;20051;-70
2021/06/05 01:22:54;;;;;;;19.45;14.65;;;;;;;15.63;100.00;96165.22;1031312;28;20034;-70
2021/06/05 01:23:38;;;;;;;18.30;16.38;;;;;;;15.57;100.00;96156.53;1034737;28;20977;-73
2021/06/05 01:24:17;;;;;;;19.00;17.00;;;;;;;15.64;100.00;96167.56;1026509;28;20030;-71
2021/06/05 01:25:07;;;;;;;18.83;16.83;;;;;;;15.64;100.00;96166.78;1026575;28;20543;-70
2021/06/05 01:26:07;;;;;;;18.20;16.33;;;;;;;15.66;100.00;96161.97;1027809;28;20049;-71
2021/06/05 01:26:38;;;;;;;17.63;15.93;;;;;;;15.57;100.00;96154.69;1021182;29;20035;-70
2021/06/05 01:27:17;;;;;;;20.20;18.10;;;;;;;15.62;100.00;96161.75;1026338;28;20026;-71
2021/06/05 01:28:25;;;;;;;21.75;19.55;;;;;;;15.67;100.00;96174.97;1022583;29;20081;-70
2021/06/05 01:28:57;;;;;;;21.58;17.75;;;;;;;15.68;100.00;96181.81;1016339;28;20448;-70
2021/06/05 01:29:33;;;;;;;20.73;18.63;;;;;;;15.70;100.00;96184.19;1021398;28;20031;-70
2021/06/05 01:30:15;;;;;;;21.55;19.25;;;;;;;15.71;100.00;96188.41;1031941;28;20093;-70
2021/06/05 01:30:48;;;;;;;21.40;19.20;;;;;;;15.70;100.00;96192.13;1034148;28;20037;-70
2021/06/05 01:31:33;;;;;;;22.48;19.75;;;;;;;15.70;100.00;96203.50;1026800;28;20487;-70
2021/06/05 01:32:06;;;;;;;21.27;19.17;;;;;;;15.72;100.00;96216.44;1022993;29;20484;-70
2021/06/05 01:32:36;;;;;;;21.08;18.80;;;;;;;15.69;100.00;96223.09;1023409;28;20192;-69
2021/06/05 01:33:07;;;;;;;19.90;16.98;;;;;;;15.59;100.00;96217.88;1019009;29;20502;-71
2021/06/05 01:33:42;;;;;;;16.88;15.18;;;;;;;15.64;100.00;96230.28;1024169;28;20019;-69
2021/06/05 01:34:13;;;;;;;17.77;15.95;;;;;;;15.52;100.00;96233.31;1023254;29;20030;-69
2021/06/05 01:34:49;;;;;;;20.40;15.27;;;;;;;15.45;100.00;96225.69;1027531;28;20444;-70
2021/06/05 01:35:20;;;;;;;17.83;16.02;;;;;;;15.39;100.00;96231.31;1023412;29;20085;-70
2021/06/05 01:35:51;;;;;;;20.33;15.10;;;;;;;15.42;100.00;96222.84;1024050;28;20027;-71
2021/06/05 01:36:22;;;;;;;17.85;16.05;;;;;;;15.34;100.00;96200.44;1024609;28;20595;-69
2021/06/05 01:36:53;;;;;;;16.77;15.00;;;;;;;15.37;100.00;96204.38;1027771;28;20109;-71
2021/06/05 01:37:24;;;;;;;17.92;16.13;;;;;;;15.33;100.00;96207.59;1022671;29;20119;-68
2021/06/05 01:37:54;;;;;;;18.60;16.60;;;;;;;15.25;100.00;96197.63;1023563;29;20078;-70
2021/06/05 01:38:25;;;;;;;18.15;16.25;;;;;;;15.24;100.00;96203.97;1023269;29;20024;-70
2021/06/05 01:38:57;;;;;;;18.30;16.13;;;;;;;15.29;100.00;96217.16;1023512;29;20532;-70
2021/06/05 01:39:31;;;;;;;18.35;16.55;;;;;;;15.24;100.00;96217.19;1023087;29;20119;-69
2021/06/05 01:40:02;;;;;;;18.33;16.33;;;;;;;15.16;100.00;96209.91;1016213;29;20032;-70
2021/06/05 01:40:33;;;;;;;17.65;15.93;;;;;;;15.22;100.00;96229.13;1023611;29;20419;-70
2021/06/05 01:41:04;;;;;;;17.38;15.43;;;;;;;15.19;100.00;96217.28;1022855;28;20027;-69
2021/06/05 01:41:35;;;;;;;17.80;15.93;;;;;;;15.21;100.00;96212.47;1023141;29;20480;-70
2021/06/05 01:42:07;;;;;;;18.17;16.38;;;;;;;15.20;100.00;96223.34;1019426;29;20019;-69
2021/06/05 01:42:38;;;;;;;18.60;16.60;;;;;;;15.20;100.00;96221.47;1019315;29;20091;-70
2021/06/05 01:43:08;;;;;;;18.42;15.90;;;;;;;15.19;100.00;96222.56;1023301;29;20078;-70
2021/06/05 01:43:39;;;;;;;18.30;15.57;;;;;;;15.18;100.00;96225.47;1031248;28;20030;-71
2021/06/05 01:44:09;;;;;;;17.27;15.48;;;;;;;15.13;100.00;96226.31;1031386;28;20026;-71
2021/06/05 01:44:40;;;;;;;17.67;15.77;;;;;;;15.06;100.00;96215.28;1031177;28;20659;-68
2021/06/05 01:45:16;;;;;;;19.02;17.13;;;;;;;15.13;100.00;96221.03;1022347;28;20019;-69
2021/06/05 01:45:46;;;;;;;17.25;15.45;;;;;;;15.08;100.00;96213.13;1017242;29;20447;-72
2021/06/05 01:46:19;;;;;;;17.85;15.95;;;;;;;15.12;100.00;96219.44;1023266;28;20388;-69
2021/06/05 01:46:50;;;;;;;18.08;16.15;;;;;;;15.08;100.00;96213.91;1026922;28;20476;-69
2021/06/05 01:47:21;;;;;;;18.70;16.75;;;;;;;15.08;100.00;96213.13;1019443;29;20110;-70
2021/06/05 01:47:52;;;;;;;17.80;15.90;;;;;;;15.05;100.00;96203.13;1023165;29;20039;-69
2021/06/05 01:48:22;;;;;;;17.83;15.93;;;;;;;15.07;100.00;96214.22;1027532;28;20050;-70
2021/06/05 01:48:53;;;;;;;21.42;16.80;;;;;;;14.84;100.00;96179.53;1029967;28;20133;-71
2021/06/05 01:49:23;;;;;;;17.63;15.52;;;;;;;15.02;100.00;96207.13;1035519;28;20119;-70
2021/06/05 01:49:54;;;;;;;18.50;16.15;;;;;;;14.93;100.00;96205.34;1031339;28;20030;-69
2021/06/05 01:50:27;;;;;;;19.05;17.10;;;;;;;14.94;100.00;96207.72;1029697;28;20035;-71
2021/06/05 01:51:01;;;;;;;18.08;16.27;;;;;;;15.00;100.00;96211.09;1023510;28;20436;-69
2021/06/05 01:51:32;;;;;;;18.75;16.88;;;;;;;14.96;100.00;96216.16;1023280;29;20110;-69
2021/06/05 01:52:05;;;;;;;17.35;15.52;;;;;;;14.89;100.00;96205.13;1034085;28;20030;-70
2021/06/05 01:52:36;;;;;;;18.48;16.55;;;;;;;14.92;100.00;96217.75;1027568;28;20023;-70
2021/06/05 01:53:10;;;;;;;18.67;16.42;;;;;;;14.92;100.00;96224.91;1031125;28;20602;-70
2021/06/05 01:53:53;;;;;;;19.83;17.75;;;;;;;14.90;100.00;96221.78;1027041;28;20023;-70
2021/06/05 01:54:32;;;;;;;19.88;16.48;;;;;;;14.88;100.00;96219.38;1027965;28;20601;-71
2021/06/05 01:55:14;;;;;;;19.55;17.20;;;;;;;14.89;100.00;96225.47;1019595;29;20027;-69
2021/06/05 01:55:47;;;;;;;18.70;16.55;;;;;;;14.82;100.00;96226.59;1022948;28;20078;-71
2021/06/05 01:56:46;;;;;;;18.77;16.67;;;;;;;14.85;100.00;96227.88;1019770;29;20027;-71
2021/06/05 01:57:17;;;;;;;18.15;16.35;;;;;;;14.85;100.00;96225.22;1023728;28;20023;-70
2021/06/05 01:57:50;;;;;;;19.85;17.10;;;;;;;14.84;100.00;96228.94;1023577;28;20027;-70
2021/06/05 01:58:25;;;;;;;18.75;16.75;;;;;;;14.82;100.00;96221.31;1031419;28;20033;-71
2021/06/05 01:58:59;;;;;;;18.75;16.30;;;;;;;14.81;100.00;96225.00;1022280;28;20098;-70
2021/06/05 01:59:29;;;;;;;20.48;16.33;;;;;;;14.75;100.00;96214.75;1024787;28;20424;-71
2021/06/05 02:00:00;;;;;;;20.63;17.25;;;;;;;14.73;100.00;96225.59;1023320;29;20035;-70
2021/06/05 02:00:35;;;;;;;20.13;17.25;;;;;;;14.72;100.00;96213.47;1023094;28;20023;-68
2021/06/05 02:01:06;;;;;;;18.55;16.77;;;;;;;14.73;100.00;96216.88;1018847;29;20032;-70
2021/06/05 02:01:37;;;;;;;18.85;16.65;;;;;;;14.77;100.00;96229.25;1019401;29;20469;-70
2021/06/05 02:02:07;;;;;;;19.70;17.60;;;;;;;14.72;100.00;96213.47;1021295;28;20023;-70
2021/06/05 02:02:37;;;;;;;18.70;16.65;;;;;;;14.75;100.00;96212.88;1031561;28;20026;-72
2021/06/05 02:03:08;;;;;;;19.00;17.00;;;;;;;14.75;100.00;96220.03;1023340;28;20023;-71
2021/06/05 02:03:39;;;;;;;19.27;17.20;;;;;;;14.66;100.00;96208.50;1027416;28;20035;-68
2021/06/05 02:04:11;;;;;;;19.38;17.33;;;;;;;14.71;100.00;96214.50;1026751;28;20070;-70
2021/06/05 02:04:42;;;;;;;22.00;17.80;;;;;;;14.65;100.00;96205.03;1027467;28;20081;-70
2021/06/05 02:05:13;;;;;;;19.58;17.40;;;;;;;14.69;100.00;96211.38;1023437;29;20033;-70
2021/06/05 02:05:43;;;;;;;19.92;17.67;;;;;;;14.66;100.00;96209.28;1023205;29;20071;-70
2021/06/05 02:06:14;;;;;;;21.20;17.52;;;;;;;14.66;100.00;96205.84;1023684;28;20381;-71
2021/06/05 02:06:46;;;;;;;19.13;17.17;;;;;;;14.64;100.00;96213.25;1031835;28;20077;-69
2021/06/05 02:07:16;;;;;;;19.05;17.17;;;;;;;14.64;100.00;96208.75;1026980;28;20015;-69
2021/06/05 02:07:47;;;;;;;19.77;17.65;;;;;;;14.63;100.00;96206.41;1027292;28;20018;-70
2021/06/05 02:08:20;;;;;;;19.55;17.45;;;;;;;14.58;100.00;96207.22;1031390;28;20026;-71
2021/06/05 02:08:51;;;;;;;19.40;17.08;;;;;;;14.54;100.00;96203.56;1019332;29;20091;-71
2021/06/05 02:09:23;;;;;;;19.85;17.60;;;;;;;14.54;100.00;96201.69;1022946;29;20448;-71
2021/06/05 02:09:53;;;;;;;19.95;17.77;;;;;;;14.59;100.00;96222.81;1022655;29;20397;-70
2021/06/05 02:10:28;;;;;;;19.58;17.25;;;;;;;14.57;100.00;96217.00;1023303;29;20058;-70
2021/06/05 02:11:04;;;;;;;20.13;17.92;;;;;;;14.52;100.00;96206.50;1022704;28;20459;-69
2021/06/05 02:11:40;;;;;;;21.17;17.25;;;;;;;14.57;100.00;96224.13;1019271;29;20083;-69
2021/06/05 02:12:20;;;;;;;20.40;18.23;;;;;;;14.53;100.00;96217.84;1027405;28;20026;-71
2021/06/05 02:12:52;;;;;;;20.02;17.63;;;;;;;14.54;100.00;96222.81;1026828;28;20031;-70
2021/06/05 02:13:25;;;;;;;22.02;17.60;;;;;;;14.53;100.00;96213.34;1027515;28;20516;-70
2021/06/05 02:13:58;;;;;;;20.35;18.30;;;;;;;14.56;100.00;96218.06;1023429;29;20527;-71
2021/06/05 02:14:31;;;;;;;20.23;18.10;;;;;;;14.58;100.00;96217.78;1026713;28;20376;-70
2021/06/05 02:15:01;;;;;;;22.50;18.42;;;;;;;14.57;100.00;96216.22;1019473;29;20020;-70
2021/06/05 02:15:44;;;;;;;19.83;17.90;;;;;;;14.48;100.00;96204.63;1019419;29;20027;-70
2021/06/05 02:16:34;;;;;;;21.30;19.02;;;;;;;14.53;100.00;96217.84;1029230;28;20551;-70
2021/06/05 02:17:07;;;;;;;22.45;18.80;;;;;;;14.52;100.00;96217.06;1031308;28;20053;-69
2021/06/05 02:17:39;;;;;;;22.40;18.98;;;;;;;14.51;100.00;96219.94;1026900;28;20038;-71
2021/06/05 02:18:13;;;;;;;20.15;17.85;;;;;;;14.51;100.00;96225.22;1022476;29;20500;-69
2021/06/05 02:18:46;;;;;;;20.88;18.77;;;;;;;14.48;100.00;96215.19;1024493;28;20066;-69
2021/06/05 02:19:33;;;;;;;21.00;18.80;;;;;;;14.47;100.00;96217.03;1026786;28;20395;-69
2021/06/05 02:20:31;;;;;;;20.33;18.25;;;;;;;14.43;100.00;96213.38;1027355;28;20024;-70
2021/06/05 02:21:07;;;;;;;19.88;17.85;;;;;;;14.44;100.00;96216.81;1024247;28;20523;-70
2021/06/05 02:21:40;;;;;;;21.98;18.13;;;;;;;14.43;100.00;96212.59;1020958;28;20075;-69
2021/06/05 02:22:16;;;;;;;21.25;19.05;;;;;;;14.41;100.00;96220.00;1023374;29;20549;-70
2021/06/05 02:22:50;;;;;;;20.80;18.63;;;;;;;14.34;100.00;96204.47;1022720;28;20060;-69
2021/06/05 02:23:24;;;;;;;22.88;19.75;;;;;;;14.31;100.00;96205.78;1027066;28;20046;-72
2021/06/05 02:24:02;;;;;;;21.50;19.20;;;;;;;14.37;100.00;96215.25;1023422;29;20031;-69
2021/06/05 02:24:35;;;;;;;20.80;18.60;;;;;;;14.35;100.00;96217.41;1022839;29;20023;-71
2021/06/05 02:25:06;;;;;;;23.33;20.02;;;;;;;14.36;100.00;96218.97;1021141;29;20059;-69
2021/06/05 02:25:39;;;;;;;20.65;18.45;;;;;;;14.38;100.00;96219.50;1024890;28;20023;-69
2021/06/05 02:26:10;;;;;;;22.48;18.42;;;;;;;14.37;100.00;96219.75;1020866;28;20040;-68
2021/06/05 02:26:41;;;;;;;21.33;19.23;;;;;;;14.34;100.00;96215.81;1019480;29;20024;-70
2021/06/05 02:27:17;;;;;;;23.77;19.15;;;;;;;14.34;100.00;96220.31;1027143;28;20087;-70
2021/06/05 02:27:50;;;;;;;20.73;18.05;;;;;;;14.30;100.00;96212.13;1027065;28;20513;-70
2021/06/05 02:28:21;;;;;;;22.02;19.67;;;;;;;14.26;100.00;96210.34;1031486;28;20061;-70
2021/06/05 02:28:55;;;;;;;24.23;20.77;;;;;;;14.31;100.00;96213.72;1031348;28;20480;-69
2021/06/05 02:29:28;;;;;;;23.10;19.98;;;;;;;14.30;100.00;96219.28;1022900;29;20393;-69
2021/06/05 02:29:59;;;;;;;21.17;18.98;;;;;;;14.25;100.00;96212.19;1023493;29;20062;-70
2021/06/05 02:30:33;;;;;;;21.50;19.20;;;;;;;14.27;100.00;96220.59;1027375;28;20066;-70
2021/06/05 02:31:05;;;;;;;22.17;19.63;;;;;;;14.22;100.00;96218.00;1026742;28;20128;-70
2021/06/05 02:31:36;;;;;;;22.85;19.33;;;;;;;14.26;100.00;96229.59;1018934;29;20549;-69
2021/06/05 02:32:08;;;;;;;22.98;20.58;;;;;;;14.28;100.00;96232.72;1027312;28;20766;-70
2021/06/05 02:32:39;;;;;;;21.90;19.73;;;;;;;14.23;100.00;96224.88;1022640;28;20023;-68
2021/06/05 02:33:09;;;;;;;24.33;21.42;;;;;;;14.29;100.00;96239.63;1030302;28;20684;-69
2021/06/05 02:33:40;;;;;;;22.23;20.02;;;;;;;14.26;100.00;96234.88;1027174;28;20042;-70
2021/06/05 02:34:13;;;;;;;23.27;20.13;;;;;;;14.33;100.00;96239.84;1023305;29;20519;-69
2021/06/05 02:34:44;;;;;;;22.45;20.05;;;;;;;14.35;100.00;96238.53;1027162;28;20081;-69